< < Back
Terminal Aerodrome Forecast


Current Version              Previous Versions:   1  2  3  4  5  6  7  8  9  

Terminal Aerodrome Forecast

351
FTUS42 KCAE 301451 AAA
TAFCAE
TAF AMD
KCAE 301451Z 3015/3112 30005KT P6SM SCT110
     FM301900 19005KT P6SM VCSH SCT050 SCT250
     FM310300 VRB03KT P6SM BKN150=

Latest METAR

109
SAUS80 KWBC 302300
MTRCAE
METAR KCAE 302256Z 20006KT 10SM BKN150 33/21 A2986 RMK AO2 SLP105
T03330206


USA.gov is the U.S. government's official web portal to all federal, state and local government web resources and services.